Portada
METAR-TAF:

METAR-TAF

Aeropuertos :

Colmenar Viejo, España

latitud: 40-39N, longitud: 003-44W, altitud: -999 m

Observación

El informe se hizo hace 11 horas y 24 minutos, a las 18:00 UTC
Viento 8 kt del este
Temperatura 18°C
Humedad 52%
Presión 1013 hPa
Visibilidad 10 km o más
Escasas nubes a una altura de 4000 ft
Nubes dispersas a una altura de 6000 ft

METAR: LECV 201800Z 08008KT 9999 FEW040 SCT060 18/08 Q1013

Hora: 07:24 (05:24 UTC)

Pronóstico

El informe se hizo hace 12 horas y 24 minutos, a las 17:00 UTC
Pronóstico válido del 20 a las 18 UTC al 21 a las 03 UTC
Viento 5 kt del noreste
Visibilidad 10 km o más
Cielo nuboso a una altura de 4500 ft
Probabilidad 40% :
Temporalmente
del 20 a las 18 UTC al 20 a las 19 UTC
Nubes dispersas a una altura de 4000 ft, Cumulus congestus.

TAF: LECV 201700Z 2018/2103 05005KT 9999 BKN045 PROB40 TEMPO 2018/2019 SCT040TCU

Observaciones y pronósticos meteorológicos de más de 4000 aeropuertos (mensajes METAR y TAF).

Los puntos amarillos y rojos representan las estaciones disponibles.

Ponga el ratón en el punto deseado para ver el nombre de la estación.

Haga clic para ver las observaciones y los pronósticos meteorológicos.

Para cambiar el mapa : haga clic en los botones verdes con una cruz de color negro para hacer un zoom, en el botón verde con un guión para alejar o en las flechas verdes para mapas adyacentes.


METAR-TAF: